createdAt,value
2023-01-22T00:01:57.192Z,18.80
2023-01-22T00:04:26.152Z,18.97
2023-01-22T00:06:55.250Z,21.57
2023-01-22T00:09:24.242Z,20.37
2023-01-22T00:11:56.040Z,20.40
2023-01-22T00:14:25.281Z,19.97
2023-01-22T00:16:55.793Z,21.77
2023-01-22T00:19:25.045Z,21.50
2023-01-22T00:21:54.096Z,21.33
2023-01-22T00:24:23.125Z,21.37
2023-01-22T00:26:51.954Z,20.37
2023-01-22T00:29:21.160Z,20.57
2023-01-22T00:31:50.312Z,20.97
2023-01-22T00:34:20.501Z,19.87
2023-01-22T00:36:49.545Z,20.83
2023-01-22T00:39:19.093Z,19.40
2023-01-22T00:41:50.057Z,19.40
2023-01-22T00:44:19.867Z,19.13
2023-01-22T00:46:50.025Z,21.47
2023-01-22T00:49:20.587Z,20.57
2023-01-22T00:51:49.685Z,21.27
2023-01-22T00:54:18.860Z,21.03
2023-01-22T00:56:47.684Z,22.00
2023-01-22T00:59:16.883Z,21.33
2023-01-22T01:01:45.822Z,20.27
2023-01-22T01:04:15.018Z,18.63
2023-01-22T01:06:45.357Z,19.53
2023-01-22T01:09:15.243Z,20.60
2023-01-22T01:11:46.049Z,20.33
2023-01-22T01:14:15.668Z,20.27
2023-01-22T01:16:44.690Z,19.37
2023-01-22T01:19:14.202Z,20.77
2023-01-22T01:21:43.474Z,20.03
2023-01-22T01:24:13.907Z,22.97
2023-01-22T01:26:43.299Z,21.40
2023-01-22T01:29:13.297Z,21.40
2023-01-22T01:31:42.170Z,20.70
2023-01-22T01:34:11.538Z,20.33
2023-01-22T01:36:48.765Z,21.10
2023-01-22T01:39:20.096Z,22.53
2023-01-22T01:41:50.665Z,21.40
2023-01-22T01:44:21.597Z,22.00
2023-01-22T01:46:53.556Z,20.97
2023-01-22T01:49:29.380Z,20.30
2023-01-22T01:52:01.522Z,22.63
2023-01-22T01:54:32.934Z,21.53
2023-01-22T01:57:06.779Z,22.40
2023-01-22T01:59:36.640Z,22.37
2023-01-22T02:02:07.213Z,24.17
2023-01-22T02:04:36.177Z,22.13
2023-01-22T02:07:06.317Z,23.03
2023-01-22T02:09:38.153Z,21.53
2023-01-22T02:12:07.864Z,21.53
2023-01-22T02:14:39.910Z,23.47
2023-01-22T02:17:09.417Z,23.90
2023-01-22T02:19:38.345Z,22.20
2023-01-22T02:22:14.764Z,22.10
2023-01-22T02:24:43.766Z,21.77
2023-01-22T02:27:13.256Z,22.27
2023-01-22T02:29:42.828Z,23.13
2023-01-22T02:32:12.882Z,22.40
2023-01-22T02:34:42.208Z,23.27
2023-01-22T02:37:11.746Z,23.73
2023-01-22T02:39:41.771Z,23.00
2023-01-22T02:42:10.912Z,22.90
2023-01-22T02:44:42.613Z,23.13
2023-01-22T02:47:11.477Z,25.33
2023-01-22T02:49:40.331Z,23.20
2023-01-22T02:52:09.623Z,23.77
2023-01-22T02:54:39.402Z,23.37
2023-01-22T02:57:09.699Z,22.80
2023-01-22T02:59:38.840Z,21.53
2023-01-22T03:02:12.743Z,21.47
2023-01-22T03:04:42.017Z,22.07
2023-01-22T03:07:12.284Z,21.93
2023-01-22T03:09:41.770Z,22.87
2023-01-22T03:12:11.889Z,23.33
2023-01-22T03:14:58.314Z,23.93
2023-01-22T03:17:44.303Z,23.30
2023-01-22T03:20:31.004Z,24.20
2023-01-22T03:23:00.554Z,23.03
2023-01-22T03:25:29.572Z,24.00
2023-01-22T03:28:16.685Z,24.23
2023-01-22T03:30:51.188Z,24.27
2023-01-22T03:33:20.218Z,23.50
2023-01-22T03:35:50.943Z,22.87
2023-01-22T03:38:22.641Z,22.73
2023-01-22T03:40:51.497Z,21.37
2023-01-22T03:43:22.833Z,22.17
2023-01-22T03:45:52.147Z,22.00
2023-01-22T03:48:22.429Z,20.90
2023-01-22T03:50:51.657Z,21.83
2023-01-22T03:53:20.581Z,21.77
2023-01-22T03:55:58.763Z,23.03
2023-01-22T03:58:30.574Z,21.37
2023-01-22T04:01:02.665Z,21.07
2023-01-22T04:03:33.001Z,22.73
2023-01-22T04:06:03.105Z,22.57
2023-01-22T04:08:33.894Z,21.23
2023-01-22T04:11:03.351Z,21.77
2023-01-22T04:13:34.217Z,21.97
2023-01-22T04:16:04.274Z,22.23
2023-01-22T04:18:55.895Z,20.50
2023-01-22T04:21:45.322Z,21.43
2023-01-22T04:24:16.084Z,21.63
2023-01-22T04:26:45.287Z,20.13
2023-01-22T04:29:17.852Z,20.50
2023-01-22T04:31:47.765Z,20.83
2023-01-22T04:34:26.863Z,19.90
2023-01-22T04:37:34.257Z,21.50
2023-01-22T04:40:04.196Z,19.87
2023-01-22T04:42:34.406Z,21.37
2023-01-22T04:45:05.312Z,18.67
2023-01-22T04:47:35.448Z,19.73
2023-01-22T04:50:04.789Z,20.07
2023-01-22T04:52:35.161Z,18.53
2023-01-22T04:55:08.343Z,17.77
2023-01-22T04:57:47.640Z,18.90
2023-01-22T05:00:19.252Z,17.63
2023-01-22T05:02:48.875Z,17.93
2023-01-22T05:05:17.853Z,17.87
2023-01-22T05:07:46.712Z,16.97
2023-01-22T05:10:16.846Z,16.40
2023-01-22T05:12:46.275Z,14.23
2023-01-22T05:15:23.968Z,13.57
2023-01-22T05:17:57.473Z,11.57
2023-01-22T05:20:27.565Z,11.00
2023-01-22T05:22:56.931Z,10.07
2023-01-22T05:25:27.964Z,9.87
2023-01-22T05:27:58.749Z,8.43
2023-01-22T05:30:41.322Z,9.30
2023-01-22T05:33:34.197Z,8.67
2023-01-22T05:36:04.574Z,8.77
2023-01-22T05:38:33.805Z,8.73
2023-01-22T05:41:02.800Z,8.50
2023-01-22T05:43:39.158Z,7.33
2023-01-22T05:46:11.507Z,7.33
2023-01-22T05:49:08.991Z,7.00
2023-01-22T05:51:37.971Z,7.27
2023-01-22T05:54:07.246Z,7.10
2023-01-22T05:56:38.887Z,5.87
2023-01-22T05:59:08.065Z,6.67
2023-01-22T06:01:37.246Z,7.80
2023-01-22T06:04:07.362Z,8.30
2023-01-22T06:06:36.214Z,7.83
2023-01-22T06:09:05.321Z,8.20
2023-01-22T06:11:39.910Z,7.90
2023-01-22T06:14:10.557Z,6.93
2023-01-22T06:16:39.381Z,7.93
2023-01-22T06:19:14.637Z,7.80
2023-01-22T06:21:47.901Z,7.20
2023-01-22T06:24:17.035Z,6.83
2023-01-22T06:26:46.131Z,7.23
2023-01-22T06:29:16.795Z,6.50
2023-01-22T06:31:46.941Z,7.10
2023-01-22T06:34:20.646Z,7.20
2023-01-22T06:36:49.588Z,8.80
2023-01-22T06:39:18.806Z,7.50
2023-01-22T06:42:00.131Z,8.97
2023-01-22T06:44:29.262Z,8.80
2023-01-22T06:46:58.920Z,8.90
2023-01-22T06:49:30.630Z,9.00
2023-01-22T06:51:59.712Z,8.33
2023-01-22T06:54:28.523Z,8.57
2023-01-22T06:56:57.488Z,9.07
2023-01-22T06:59:26.815Z,10.27
2023-01-22T07:01:56.238Z,9.70
2023-01-22T07:04:25.282Z,11.20
2023-01-22T07:06:55.326Z,11.00
2023-01-22T07:09:24.455Z,12.37
2023-01-22T07:11:53.500Z,12.40
2023-01-22T07:14:36.210Z,13.87
2023-01-22T07:17:05.954Z,14.57
2023-01-22T07:19:35.491Z,15.33
2023-01-22T07:22:05.819Z,15.83
2023-01-22T07:24:34.677Z,15.20
2023-01-22T07:27:04.198Z,16.83
2023-01-22T07:29:33.174Z,17.77
2023-01-22T07:32:02.108Z,18.87
2023-01-22T07:34:30.961Z,17.10
2023-01-22T07:37:02.536Z,18.83
2023-01-22T07:39:32.965Z,17.77
2023-01-22T07:42:01.948Z,18.10
2023-01-22T07:44:33.455Z,17.00
2023-01-22T07:47:02.367Z,17.27
2023-01-22T07:49:31.223Z,17.47
2023-01-22T07:52:00.295Z,17.03
2023-01-22T07:54:29.220Z,16.10
2023-01-22T07:56:59.239Z,16.77
2023-01-22T07:59:28.131Z,17.37
2023-01-22T08:01:57.273Z,16.77
2023-01-22T08:04:26.331Z,16.80
2023-01-22T08:06:55.499Z,17.13
2023-01-22T08:09:25.980Z,20.43
2023-01-22T08:11:55.095Z,17.13
2023-01-22T08:14:25.540Z,17.20
2023-01-22T08:16:54.412Z,16.43
2023-01-22T08:19:23.384Z,15.33
2023-01-22T08:21:52.443Z,14.63
2023-01-22T08:24:21.337Z,13.83
2023-01-22T08:26:50.386Z,16.43
2023-01-22T08:29:20.695Z,14.57
2023-01-22T08:31:51.286Z,14.93
2023-01-22T08:34:20.678Z,15.70
2023-01-22T08:36:49.912Z,15.47
2023-01-22T08:39:18.944Z,15.97
2023-01-22T08:41:47.806Z,14.20
2023-01-22T08:44:17.517Z,14.83
2023-01-22T08:46:47.017Z,15.17
2023-01-22T08:49:18.790Z,14.23
2023-01-22T08:51:48.369Z,16.13
2023-01-22T08:54:17.830Z,15.33
2023-01-22T08:56:48.757Z,13.73
2023-01-22T08:59:19.208Z,13.43
2023-01-22T09:01:48.967Z,13.87
2023-01-22T09:04:20.845Z,12.80
2023-01-22T09:06:50.352Z,13.70
2023-01-22T09:09:20.788Z,13.27
2023-01-22T09:11:49.864Z,14.13
2023-01-22T09:14:19.447Z,14.57
2023-01-22T09:16:49.088Z,12.63
2023-01-22T09:19:20.499Z,12.73
2023-01-22T09:21:50.337Z,12.07
2023-01-22T09:24:19.704Z,11.90
2023-01-22T09:26:49.124Z,11.83
2023-01-22T09:29:18.529Z,11.53
2023-01-22T09:31:48.045Z,11.37
2023-01-22T09:34:17.643Z,11.33
2023-01-22T09:36:48.942Z,12.27
2023-01-22T09:39:18.353Z,11.83
2023-01-22T09:41:51.847Z,11.60
2023-01-22T09:44:24.289Z,11.27
2023-01-22T09:46:59.068Z,12.63
2023-01-22T09:49:32.695Z,12.00
2023-01-22T09:52:05.460Z,12.33
2023-01-22T09:54:37.505Z,14.97
2023-01-22T09:57:08.815Z,14.63
2023-01-22T09:59:48.135Z,14.33
2023-01-22T10:02:25.243Z,13.90
2023-01-22T10:04:58.877Z,13.53
2023-01-22T10:07:35.618Z,14.00
2023-01-22T10:10:19.240Z,13.00
2023-01-22T10:13:04.701Z,13.80
2023-01-22T10:15:34.204Z,14.00
2023-01-22T10:18:06.999Z,13.00
2023-01-22T10:20:36.796Z,12.80
2023-01-22T10:23:18.642Z,14.03
2023-01-22T10:25:49.099Z,13.53
2023-01-22T10:28:18.614Z,14.07
2023-01-22T10:30:49.051Z,14.57
2023-01-22T10:33:21.969Z,15.87
2023-01-22T10:35:53.218Z,15.53
2023-01-22T10:38:30.620Z,16.27
2023-01-22T10:41:00.980Z,15.90
2023-01-22T10:43:35.296Z,14.40
2023-01-22T10:46:17.920Z,14.50
2023-01-22T10:48:47.516Z,14.73
2023-01-22T10:51:19.582Z,11.77
2023-01-22T10:53:55.380Z,12.53
2023-01-22T10:56:31.345Z,12.27
2023-01-22T10:59:03.956Z,13.40
2023-01-22T11:01:37.050Z,13.00
2023-01-22T11:04:21.254Z,11.63
2023-01-22T11:06:54.966Z,11.83
2023-01-22T11:09:29.858Z,12.00
2023-01-22T11:12:05.687Z,12.23
2023-01-22T11:14:37.928Z,12.30
2023-01-22T11:17:15.919Z,13.37
2023-01-22T11:19:50.336Z,13.60
2023-01-22T11:22:27.377Z,13.60
2023-01-22T11:24:58.352Z,13.73
2023-01-22T11:27:56.739Z,14.53
2023-01-22T11:30:57.872Z,12.67
2023-01-22T11:33:44.191Z,12.77
2023-01-22T11:36:21.287Z,11.53
2023-01-22T11:38:56.727Z,11.50
2023-01-22T11:41:38.234Z,13.07
2023-01-22T11:44:27.526Z,13.67
2023-01-22T11:47:23.030Z,12.77
2023-01-22T11:50:06.581Z,12.47
2023-01-22T11:52:48.965Z,12.20
2023-01-22T11:55:49.016Z,13.13
2023-01-22T11:58:27.961Z,13.50
2023-01-22T12:01:08.908Z,14.73
2023-01-22T12:04:17.513Z,13.97
2023-01-22T12:07:06.215Z,13.77
2023-01-22T12:09:40.247Z,13.43
2023-01-22T12:12:21.550Z,12.00
2023-01-22T12:15:20.194Z,14.30
2023-01-22T12:18:03.390Z,15.53
2023-01-22T12:21:03.120Z,14.23
2023-01-22T12:23:37.932Z,13.57
2023-01-22T12:26:13.173Z,14.00
2023-01-22T12:28:47.563Z,14.50
2023-01-22T12:31:29.206Z,13.77
2023-01-22T12:34:01.521Z,14.23
2023-01-22T12:36:31.667Z,14.03
2023-01-22T12:39:04.986Z,14.23
2023-01-22T12:41:53.738Z,14.30
2023-01-22T12:44:32.823Z,14.20
2023-01-22T12:47:10.790Z,17.10
2023-01-22T12:49:48.783Z,16.30
2023-01-22T12:52:30.904Z,15.97
2023-01-22T12:55:01.352Z,16.03
2023-01-22T12:57:40.404Z,15.50
2023-01-22T13:00:24.065Z,15.53
2023-01-22T13:02:54.854Z,15.67
2023-01-22T13:05:39.612Z,15.47
2023-01-22T13:08:27.871Z,15.13
2023-01-22T13:10:59.404Z,14.57
2023-01-22T13:13:33.491Z,13.03
2023-01-22T13:16:06.259Z,13.27
2023-01-22T13:18:43.872Z,13.10
2023-01-22T13:21:15.984Z,13.03
2023-01-22T13:23:47.860Z,12.70
2023-01-22T13:26:19.528Z,12.50
2023-01-22T13:28:58.445Z,12.77
2023-01-22T13:31:28.461Z,12.23
2023-01-22T13:34:17.827Z,13.00
2023-01-22T13:36:48.999Z,12.47
2023-01-22T13:39:26.775Z,11.47
2023-01-22T13:41:58.764Z,11.90
2023-01-22T13:44:32.730Z,12.87
2023-01-22T13:47:02.247Z,11.27
2023-01-22T13:49:35.027Z,11.50
2023-01-22T13:52:08.645Z,10.93
2023-01-22T13:54:43.458Z,11.47
2023-01-22T13:57:14.917Z,10.90
2023-01-22T13:59:54.903Z,10.97
2023-01-22T14:02:26.160Z,10.67
2023-01-22T14:04:57.514Z,11.70
2023-01-22T14:07:29.461Z,10.90
2023-01-22T14:10:01.008Z,11.67
2023-01-22T14:12:30.989Z,11.70
2023-01-22T14:15:00.562Z,11.83
2023-01-22T14:17:34.368Z,11.70
2023-01-22T14:20:05.981Z,12.87
2023-01-22T14:22:35.403Z,12.90
2023-01-22T14:25:05.366Z,12.47
2023-01-22T14:27:42.528Z,12.27
2023-01-22T14:30:15.361Z,13.03
2023-01-22T14:32:44.807Z,11.77
2023-01-22T14:35:19.089Z,14.33
2023-01-22T14:37:49.014Z,14.83
2023-01-22T14:40:19.405Z,14.30
2023-01-22T14:42:49.646Z,13.97
2023-01-22T14:45:20.880Z,14.33
2023-01-22T14:47:52.736Z,14.43
2023-01-22T14:50:24.909Z,15.20
2023-01-22T14:52:56.860Z,16.33
2023-01-22T14:55:26.911Z,14.97
2023-01-22T14:57:58.030Z,16.30
2023-01-22T15:00:28.132Z,15.27
2023-01-22T15:02:57.938Z,13.77
2023-01-22T15:05:30.025Z,14.10
2023-01-22T15:08:01.107Z,14.13
2023-01-22T15:10:30.687Z,14.57
2023-01-22T15:13:00.003Z,14.83
2023-01-22T15:15:29.559Z,14.43
2023-01-22T15:17:59.856Z,16.00
2023-01-22T15:20:31.097Z,15.17
2023-01-22T15:23:00.856Z,15.63
2023-01-22T15:25:30.271Z,14.80
2023-01-22T15:27:59.690Z,14.17
2023-01-22T15:30:29.937Z,14.30
2023-01-22T15:32:59.878Z,14.83
2023-01-22T15:35:30.822Z,15.13
2023-01-22T15:38:00.524Z,14.10
2023-01-22T15:40:30.197Z,13.97
2023-01-22T15:43:00.957Z,14.47
2023-01-22T15:45:32.426Z,14.87
2023-01-22T15:48:02.404Z,14.10
2023-01-22T15:50:34.433Z,14.43
2023-01-22T15:53:04.148Z,14.70
2023-01-22T15:55:33.726Z,14.53
2023-01-22T15:58:03.639Z,15.70
2023-01-22T16:00:34.248Z,15.07
2023-01-22T16:03:04.226Z,15.03
2023-01-22T16:05:35.119Z,15.50
2023-01-22T16:08:04.377Z,15.87
2023-01-22T16:10:34.604Z,15.37
2023-01-22T16:13:03.926Z,16.20
2023-01-22T16:15:36.310Z,15.27
2023-01-22T16:18:05.708Z,15.77
2023-01-22T16:20:37.541Z,15.67
2023-01-22T16:23:07.493Z,16.80
2023-01-22T16:25:36.785Z,16.57
2023-01-22T16:28:07.199Z,16.57
2023-01-22T16:30:37.083Z,16.63
2023-01-22T16:33:19.656Z,17.00
2023-01-22T16:35:50.775Z,16.03
2023-01-22T16:38:20.480Z,16.30
2023-01-22T16:40:50.666Z,14.50
2023-01-22T16:43:20.370Z,15.97
2023-01-22T16:45:50.113Z,16.27
2023-01-22T16:48:19.459Z,15.43
2023-01-22T16:50:49.174Z,17.27
2023-01-22T16:53:21.362Z,17.00
2023-01-22T16:55:50.997Z,17.23
2023-01-22T16:58:20.245Z,17.03
2023-01-22T17:00:50.213Z,17.33
2023-01-22T17:03:19.879Z,17.17
2023-01-22T17:05:50.766Z,17.50
2023-01-22T17:08:22.257Z,18.57
2023-01-22T17:10:52.373Z,16.13
2023-01-22T17:13:22.228Z,19.23
2023-01-22T17:15:53.384Z,19.13
2023-01-22T17:18:25.697Z,17.30
2023-01-22T17:21:02.096Z,17.67
2023-01-22T17:23:34.021Z,16.63
2023-01-22T17:26:08.416Z,17.87
2023-01-22T17:28:39.790Z,17.70
2023-01-22T17:31:10.554Z,17.17
2023-01-22T17:33:41.172Z,17.23
2023-01-22T17:36:15.189Z,17.57
2023-01-22T17:38:46.371Z,16.67
2023-01-22T17:41:17.772Z,18.13
2023-01-22T17:43:48.514Z,16.83
2023-01-22T17:46:20.743Z,17.30
2023-01-22T17:48:51.634Z,17.60
2023-01-22T17:51:23.067Z,18.03
2023-01-22T17:53:55.543Z,20.93
2023-01-22T17:56:26.951Z,19.53
2023-01-22T17:58:57.718Z,19.27
2023-01-22T18:01:30.417Z,19.10
2023-01-22T18:04:01.005Z,20.33
2023-01-22T18:06:32.806Z,17.63
2023-01-22T18:09:05.715Z,16.90
2023-01-22T18:11:35.541Z,15.57
2023-01-22T18:14:05.899Z,15.60
2023-01-22T18:16:37.263Z,15.17
2023-01-22T18:19:07.593Z,15.63
2023-01-22T18:21:38.285Z,16.47
2023-01-22T18:24:13.076Z,16.70
2023-01-22T18:26:42.822Z,16.40
2023-01-22T18:29:13.298Z,17.50
2023-01-22T18:31:44.818Z,17.00
2023-01-22T18:34:17.309Z,17.80
2023-01-22T18:36:46.969Z,20.97
2023-01-22T18:39:19.272Z,19.40
2023-01-22T18:41:49.360Z,19.43
2023-01-22T18:44:20.309Z,19.67
2023-01-22T18:46:52.922Z,20.90
2023-01-22T18:49:23.612Z,22.20
2023-01-22T18:51:54.714Z,19.07
2023-01-22T18:54:25.640Z,19.07
2023-01-22T18:56:55.114Z,18.20
2023-01-22T18:59:24.242Z,18.27
2023-01-22T19:01:53.760Z,18.87
2023-01-22T19:04:23.316Z,18.10
2023-01-22T19:06:53.996Z,18.73
2023-01-22T19:09:23.752Z,18.77
2023-01-22T19:11:56.066Z,17.87
2023-01-22T19:14:25.752Z,17.73
2023-01-22T19:16:55.915Z,17.53
2023-01-22T19:19:26.013Z,18.17
2023-01-22T19:21:58.538Z,19.17
2023-01-22T19:24:28.906Z,16.23
2023-01-22T19:26:59.771Z,17.60
2023-01-22T19:29:29.923Z,17.97
2023-01-22T19:31:59.558Z,19.43
2023-01-22T19:34:30.975Z,18.17
2023-01-22T19:37:03.275Z,18.47
2023-01-22T19:39:33.198Z,19.67
2023-01-22T19:42:07.149Z,18.67
2023-01-22T19:44:37.880Z,19.17
2023-01-22T19:47:09.150Z,19.00
2023-01-22T19:49:39.678Z,19.10
2023-01-22T19:52:10.038Z,18.03
2023-01-22T19:54:43.717Z,18.00
2023-01-22T19:57:14.517Z,17.63
2023-01-22T19:59:45.149Z,16.77
2023-01-22T20:02:15.796Z,17.03
2023-01-22T20:04:45.587Z,17.00
2023-01-22T20:07:15.251Z,18.23
2023-01-22T20:09:45.132Z,19.23
2023-01-22T20:12:18.345Z,18.73
2023-01-22T20:14:47.883Z,20.57
2023-01-22T20:17:17.240Z,18.60
2023-01-22T20:19:46.508Z,19.63
2023-01-22T20:22:15.798Z,19.30
2023-01-22T20:24:45.545Z,20.73
2023-01-22T20:27:17.869Z,17.63
2023-01-22T20:29:47.655Z,17.70
2023-01-22T20:32:17.205Z,18.53
2023-01-22T20:34:49.243Z,18.30
2023-01-22T20:37:18.873Z,15.93
2023-01-22T20:39:48.723Z,17.73
2023-01-22T20:42:19.847Z,19.17
2023-01-22T20:44:49.743Z,17.00
2023-01-22T20:47:19.491Z,16.80
2023-01-22T20:49:49.268Z,18.73
2023-01-22T20:52:20.309Z,18.57
2023-01-22T20:55:00.892Z,18.07
2023-01-22T20:57:33.293Z,23.70
2023-01-22T21:00:02.535Z,20.30
2023-01-22T21:02:32.409Z,21.60
2023-01-22T21:05:02.314Z,21.00
2023-01-22T21:07:32.252Z,18.80
2023-01-22T21:10:01.934Z,21.23
2023-01-22T21:12:33.047Z,17.80
2023-01-22T21:15:03.660Z,19.27
2023-01-22T21:17:34.132Z,20.13
2023-01-22T21:20:03.744Z,19.30
2023-01-22T21:22:33.753Z,19.60
2023-01-22T21:25:03.288Z,18.33
2023-01-22T21:27:34.168Z,18.63
2023-01-22T21:30:04.003Z,19.07
2023-01-22T21:32:33.525Z,20.47
2023-01-22T21:35:04.134Z,17.73
2023-01-22T21:37:34.059Z,18.17
2023-01-22T21:40:04.208Z,16.47
2023-01-22T21:42:53.178Z,19.33
2023-01-22T21:45:39.514Z,18.33
2023-01-22T21:48:09.391Z,17.90
2023-01-22T21:50:41.855Z,19.70
2023-01-22T21:53:13.212Z,20.10
2023-01-22T21:55:43.342Z,21.03
2023-01-22T21:58:14.391Z,18.80
2023-01-22T22:00:44.067Z,19.17
2023-01-22T22:03:13.596Z,19.50
2023-01-22T22:05:43.199Z,19.20
2023-01-22T22:08:13.480Z,19.27
2023-01-22T22:10:43.343Z,18.53
2023-01-22T22:13:14.302Z,20.03
2023-01-22T22:15:43.881Z,19.90
2023-01-22T22:18:13.435Z,18.20
2023-01-22T22:20:43.351Z,18.13
2023-01-22T22:23:14.097Z,18.43
2023-01-22T22:25:43.850Z,18.07
2023-01-22T22:28:14.770Z,18.87
2023-01-22T22:30:44.430Z,18.00
2023-01-22T22:33:14.521Z,19.20
2023-01-22T22:35:47.034Z,18.90
2023-01-22T22:38:17.164Z,19.37
2023-01-22T22:40:46.954Z,19.43
2023-01-22T22:43:18.126Z,19.33
2023-01-22T22:45:47.614Z,17.80
2023-01-22T22:48:17.247Z,20.13
2023-01-22T22:50:46.526Z,23.67
2023-01-22T22:53:16.143Z,19.83
2023-01-22T22:55:45.655Z,21.53
2023-01-22T22:58:15.585Z,20.47
2023-01-22T23:00:47.081Z,20.37
2023-01-22T23:03:16.880Z,20.27
2023-01-22T23:05:46.678Z,19.30
2023-01-22T23:08:16.271Z,19.53
2023-01-22T23:10:46.188Z,19.30
2023-01-22T23:13:15.790Z,20.27
2023-01-22T23:15:46.949Z,19.23
2023-01-22T23:18:16.793Z,20.20
2023-01-22T23:20:46.366Z,20.27
2023-01-22T23:23:16.167Z,20.07
2023-01-22T23:25:46.283Z,20.07
2023-01-22T23:28:16.278Z,19.30
2023-01-22T23:30:48.605Z,19.07
2023-01-22T23:33:18.846Z,22.27
2023-01-22T23:35:53.189Z,20.97
2023-01-22T23:38:23.338Z,21.30
2023-01-22T23:40:58.893Z,21.67
2023-01-22T23:43:28.310Z,20.27
2023-01-22T23:46:01.913Z,22.23
2023-01-22T23:48:31.730Z,20.77
2023-01-22T23:51:01.492Z,20.83
2023-01-22T23:53:32.297Z,19.87
2023-01-22T23:56:03.108Z,20.03
2023-01-22T23:58:33.321Z,22.67
